Impacts TAF Board
For situational awareness. Not to be used for flight planning purposes.
IDs:

KHOU - Houston/Hobby Arpt, TX, US

Issued at 1135 UTC 14 Dec 2019
Updated at 1336 UTC 14 Dec 2019
Potential Impact None Slight Moderate High
Time1253Z 14/14Z 14/15Z 14/16Z 14/17Z 14/18Z 14/19Z 14/20Z 14/21Z 14/22Z 14/23Z 15/00Z 15/01Z 15/02Z>>
Type OBS PRVL PRVL PRVL PRVL PRVL PRVL PRVL PRVL PRVL PRVL PRVL PRVL PRVL
VIS 10 >6 >6 >6 >6 >6 >6 >6 >6 >6 >6 >6 >6 >6
CIG -- -- -- -- -- -- -- -- -- -- -- -- -- --
Cover CLR SKC SKC SKC SKC SKC SKC SKC SKC SKC SKC SCT SCT SCT
FltCat VFR VFR VFR VFR VFR VFR VFR VFR VFR VFR VFR VFR VFR VFR
WX -- -- -- -- -- -- -- -- -- -- -- -- -- --
WDir 40 VRB VRB VRB VRB VRB 80 80 80 80 80 140 140 140
WSpd 3 4 4 4 4 4 5 5 5 5 5 5 5 5
WGst -- -- -- -- -- -- -- -- -- -- -- -- -- --
Raw TAF
KHOU 141135Z 1412/1512 VRB04KT P6SM SKC
  FM141900 08005KT P6SM SKC
  FM150000 14005KT P6SM FEW050 SCT250
  FM150400 15004KT P6SM SCT025
  FM150800 17005KT P6SM MIFG BKN025
  FM151000 17005KT 6SM BR SCT008 BKN018


Raw METAR
KHOU 141253Z 04003KT 10SM CLR 10/07 A2988 RMK AO2 SLP122 T01000072
KHOU 141153Z 00000KT 10SM CLR 09/06 A2986 RMK AO2 SLP115 T00890061 10150 20089 55001
KHOU 141053Z 00000KT 10SM FEW250 09/07 A2985 RMK AO2 SLP113 T00940067

METAR Board
Radar Display
Forecast Discussion
For situational awareness. Not to be used for flight planning purposes.